sensor_id;sensor_type;location;lat;lon;timestamp;P1;durP1;ratioP1;P2;durP2;ratioP2
40917;SDS011;26644;50.248;19.032;2022-09-04T00:01:18;12.23;;;7.90;;
40917;SDS011;26644;50.248;19.032;2022-09-04T00:04:28;13.73;;;7.30;;
40917;SDS011;26644;50.248;19.032;2022-09-04T00:07:36;12.15;;;8.07;;
40917;SDS011;26644;50.248;19.032;2022-09-04T00:10:46;11.68;;;7.25;;
40917;SDS011;26644;50.248;19.032;2022-09-04T00:13:57;13.82;;;8.32;;
40917;SDS011;26644;50.248;19.032;2022-09-04T00:17:02;14.10;;;8.43;;
40917;SDS011;26644;50.248;19.032;2022-09-04T00:20:10;12.20;;;8.35;;
40917;SDS011;26644;50.248;19.032;2022-09-04T00:23:23;12.85;;;7.95;;
40917;SDS011;26644;50.248;19.032;2022-09-04T00:26:37;14.38;;;8.38;;
40917;SDS011;26644;50.248;19.032;2022-09-04T00:29:50;14.35;;;8.88;;
40917;SDS011;26644;50.248;19.032;2022-09-04T00:32:58;11.82;;;8.80;;
40917;SDS011;26644;50.248;19.032;2022-09-04T00:36:07;15.77;;;9.18;;
40917;SDS011;26644;50.248;19.032;2022-09-04T00:39:11;16.73;;;9.98;;
40917;SDS011;26644;50.248;19.032;2022-09-04T00:42:21;13.20;;;8.70;;
40917;SDS011;26644;50.248;19.032;2022-09-04T00:45:51;14.20;;;9.73;;
40917;SDS011;26644;50.248;19.032;2022-09-04T00:49:18;14.32;;;9.65;;
40917;SDS011;26644;50.248;19.032;2022-09-04T00:52:41;14.15;;;8.95;;
40917;SDS011;26644;50.248;19.032;2022-09-04T00:56:03;20.20;;;10.23;;
40917;SDS011;26644;50.248;19.032;2022-09-04T00:59:27;13.95;;;10.20;;
40917;SDS011;26644;50.248;19.032;2022-09-04T01:02:50;14.32;;;9.45;;
40917;SDS011;26644;50.248;19.032;2022-09-04T01:09:45;15.48;;;9.82;;
40917;SDS011;26644;50.248;19.032;2022-09-04T01:16:08;15.10;;;9.73;;
40917;SDS011;26644;50.248;19.032;2022-09-04T01:19:22;12.95;;;9.45;;
40917;SDS011;26644;50.248;19.032;2022-09-04T01:22:43;18.40;;;8.85;;
40917;SDS011;26644;50.248;19.032;2022-09-04T01:25:59;12.82;;;8.35;;
40917;SDS011;26644;50.248;19.032;2022-09-04T01:29:11;13.45;;;8.88;;
40917;SDS011;26644;50.248;19.032;2022-09-04T01:32:27;18.25;;;10.23;;
40917;SDS011;26644;50.248;19.032;2022-09-04T01:35:38;13.90;;;8.80;;
40917;SDS011;26644;50.248;19.032;2022-09-04T01:38:48;13.27;;;9.77;;
40917;SDS011;26644;50.248;19.032;2022-09-04T01:41:57;13.85;;;9.60;;
40917;SDS011;26644;50.248;19.032;2022-09-04T01:45:03;14.48;;;9.25;;
40917;SDS011;26644;50.248;19.032;2022-09-04T01:48:06;12.35;;;9.18;;
40917;SDS011;26644;50.248;19.032;2022-09-04T01:51:11;12.15;;;8.48;;
40917;SDS011;26644;50.248;19.032;2022-09-04T01:54:30;10.80;;;8.18;;
40917;SDS011;26644;50.248;19.032;2022-09-04T01:57:47;13.10;;;8.93;;
40917;SDS011;26644;50.248;19.032;2022-09-04T02:00:59;12.65;;;8.20;;
40917;SDS011;26644;50.248;19.032;2022-09-04T02:04:12;12.52;;;8.95;;
40917;SDS011;26644;50.248;19.032;2022-09-04T02:07:24;13.17;;;8.47;;
40917;SDS011;26644;50.248;19.032;2022-09-04T02:10:35;11.50;;;8.88;;
40917;SDS011;26644;50.248;19.032;2022-09-04T02:13:43;13.50;;;8.82;;
40917;SDS011;26644;50.248;19.032;2022-09-04T02:16:59;11.13;;;8.68;;
40917;SDS011;26644;50.248;19.032;2022-09-04T02:20:13;12.55;;;8.65;;
40917;SDS011;26644;50.248;19.032;2022-09-04T02:23:23;15.07;;;8.95;;
40917;SDS011;26644;50.248;19.032;2022-09-04T02:26:36;14.35;;;8.88;;
40917;SDS011;26644;50.248;19.032;2022-09-04T02:29:47;14.77;;;9.25;;
40917;SDS011;26644;50.248;19.032;2022-09-04T02:32:58;14.17;;;9.40;;
40917;SDS011;26644;50.248;19.032;2022-09-04T02:36:09;13.23;;;9.30;;
40917;SDS011;26644;50.248;19.032;2022-09-04T02:39:22;15.30;;;9.73;;
40917;SDS011;26644;50.248;19.032;2022-09-04T02:42:36;14.95;;;9.70;;
40917;SDS011;26644;50.248;19.032;2022-09-04T02:45:49;16.35;;;10.65;;
40917;SDS011;26644;50.248;19.032;2022-09-04T02:49:01;16.70;;;10.85;;
40917;SDS011;26644;50.248;19.032;2022-09-04T02:52:16;20.40;;;12.48;;
40917;SDS011;26644;50.248;19.032;2022-09-04T02:55:30;17.77;;;11.45;;
40917;SDS011;26644;50.248;19.032;2022-09-04T02:58:48;19.13;;;10.85;;
40917;SDS011;26644;50.248;19.032;2022-09-04T03:01:59;17.17;;;11.38;;
40917;SDS011;26644;50.248;19.032;2022-09-04T03:05:05;14.63;;;10.35;;
40917;SDS011;26644;50.248;19.032;2022-09-04T03:08:14;13.03;;;9.20;;
40917;SDS011;26644;50.248;19.032;2022-09-04T03:11:21;11.98;;;8.88;;
40917;SDS011;26644;50.248;19.032;2022-09-04T03:14:28;15.27;;;9.77;;
40917;SDS011;26644;50.248;19.032;2022-09-04T03:17:39;18.75;;;11.50;;
40917;SDS011;26644;50.248;19.032;2022-09-04T03:20:49;25.55;;;14.88;;
40917;SDS011;26644;50.248;19.032;2022-09-04T03:23:57;21.92;;;14.32;;
40917;SDS011;26644;50.248;19.032;2022-09-04T03:27:05;23.17;;;14.98;;
40917;SDS011;26644;50.248;19.032;2022-09-04T03:30:11;16.45;;;11.65;;
40917;SDS011;26644;50.248;19.032;2022-09-04T03:33:16;14.93;;;10.50;;
40917;SDS011;26644;50.248;19.032;2022-09-04T03:36:25;15.20;;;8.50;;
40917;SDS011;26644;50.248;19.032;2022-09-04T03:39:37;13.48;;;8.95;;
40917;SDS011;26644;50.248;19.032;2022-09-04T03:42:48;14.75;;;9.82;;
40917;SDS011;26644;50.248;19.032;2022-09-04T03:46:01;12.15;;;8.13;;
40917;SDS011;26644;50.248;19.032;2022-09-04T03:49:19;14.48;;;8.13;;
40917;SDS011;26644;50.248;19.032;2022-09-04T03:52:33;13.00;;;8.02;;
40917;SDS011;26644;50.248;19.032;2022-09-04T03:55:56;13.40;;;7.82;;
40917;SDS011;26644;50.248;19.032;2022-09-04T03:59:14;12.90;;;8.33;;
40917;SDS011;26644;50.248;19.032;2022-09-04T04:02:26;11.68;;;7.13;;
40917;SDS011;26644;50.248;19.032;2022-09-04T04:05:42;12.10;;;7.43;;
40917;SDS011;26644;50.248;19.032;2022-09-04T04:08:56;13.85;;;7.63;;
40917;SDS011;26644;50.248;19.032;2022-09-04T04:12:12;12.02;;;7.60;;
40917;SDS011;26644;50.248;19.032;2022-09-04T04:15:30;14.35;;;8.18;;
40917;SDS011;26644;50.248;19.032;2022-09-04T04:22:22;14.52;;;8.02;;
40917;SDS011;26644;50.248;19.032;2022-09-04T04:25:43;11.70;;;7.45;;
40917;SDS011;26644;50.248;19.032;2022-09-04T04:32:31;12.98;;;7.60;;
40917;SDS011;26644;50.248;19.032;2022-09-04T04:35:42;13.80;;;7.32;;
40917;SDS011;26644;50.248;19.032;2022-09-04T04:39:04;18.98;;;8.73;;
40917;SDS011;26644;50.248;19.032;2022-09-04T04:42:26;11.93;;;7.22;;
40917;SDS011;26644;50.248;19.032;2022-09-04T04:45:35;11.85;;;7.20;;
40917;SDS011;26644;50.248;19.032;2022-09-04T04:52:27;14.73;;;8.13;;
40917;SDS011;26644;50.248;19.032;2022-09-04T04:55:43;10.40;;;7.50;;
40917;SDS011;26644;50.248;19.032;2022-09-04T04:58:54;15.55;;;8.38;;
40917;SDS011;26644;50.248;19.032;2022-09-04T05:02:03;12.90;;;7.40;;
40917;SDS011;26644;50.248;19.032;2022-09-04T05:05:14;16.10;;;9.82;;
40917;SDS011;26644;50.248;19.032;2022-09-04T05:08:24;20.33;;;9.23;;
40917;SDS011;26644;50.248;19.032;2022-09-04T05:11:36;15.73;;;9.48;;
40917;SDS011;26644;50.248;19.032;2022-09-04T05:14:45;15.95;;;10.10;;
40917;SDS011;26644;50.248;19.032;2022-09-04T05:17:56;23.00;;;11.48;;
40917;SDS011;26644;50.248;19.032;2022-09-04T05:21:06;16.10;;;10.65;;
40917;SDS011;26644;50.248;19.032;2022-09-04T05:24:16;21.13;;;11.67;;
40917;SDS011;26644;50.248;19.032;2022-09-04T05:27:33;15.75;;;10.20;;
40917;SDS011;26644;50.248;19.032;2022-09-04T05:30:45;13.80;;;9.30;;
40917;SDS011;26644;50.248;19.032;2022-09-04T05:33:55;13.85;;;7.57;;
40917;SDS011;26644;50.248;19.032;2022-09-04T05:37:06;14.90;;;9.07;;
40917;SDS011;26644;50.248;19.032;2022-09-04T05:40:14;14.52;;;8.07;;
40917;SDS011;26644;50.248;19.032;2022-09-04T05:43:28;12.98;;;8.50;;
40917;SDS011;26644;50.248;19.032;2022-09-04T05:46:44;14.93;;;10.13;;
40917;SDS011;26644;50.248;19.032;2022-09-04T05:50:13;14.48;;;9.70;;
40917;SDS011;26644;50.248;19.032;2022-09-04T05:53:30;12.90;;;9.07;;
40917;SDS011;26644;50.248;19.032;2022-09-04T05:56:56;14.02;;;9.35;;
40917;SDS011;26644;50.248;19.032;2022-09-04T06:00:07;16.20;;;9.55;;
40917;SDS011;26644;50.248;19.032;2022-09-04T06:06:56;14.75;;;9.45;;
40917;SDS011;26644;50.248;19.032;2022-09-04T06:10:09;14.80;;;9.18;;
40917;SDS011;26644;50.248;19.032;2022-09-04T06:17:03;15.80;;;10.20;;
40917;SDS011;26644;50.248;19.032;2022-09-04T06:20:18;16.80;;;10.02;;
40917;SDS011;26644;50.248;19.032;2022-09-04T06:30:29;14.20;;;9.07;;
40917;SDS011;26644;50.248;19.032;2022-09-04T06:33:46;17.52;;;10.98;;
40917;SDS011;26644;50.248;19.032;2022-09-04T06:36:56;15.82;;;10.48;;
40917;SDS011;26644;50.248;19.032;2022-09-04T06:40:09;14.60;;;9.35;;
40917;SDS011;26644;50.248;19.032;2022-09-04T06:43:23;12.57;;;9.68;;
40917;SDS011;26644;50.248;19.032;2022-09-04T06:46:36;13.27;;;8.85;;
40917;SDS011;26644;50.248;19.032;2022-09-04T06:49:50;15.73;;;9.52;;
40917;SDS011;26644;50.248;19.032;2022-09-04T06:53:06;15.68;;;9.43;;
40917;SDS011;26644;50.248;19.032;2022-09-04T06:56:25;12.65;;;8.70;;
40917;SDS011;26644;50.248;19.032;2022-09-04T06:59:53;11.82;;;8.70;;
40917;SDS011;26644;50.248;19.032;2022-09-04T07:03:12;12.48;;;9.00;;
40917;SDS011;26644;50.248;19.032;2022-09-04T07:09:31;15.82;;;8.98;;
40917;SDS011;26644;50.248;19.032;2022-09-04T07:12:45;15.35;;;9.32;;
40917;SDS011;26644;50.248;19.032;2022-09-04T07:16:19;11.10;;;7.93;;
40917;SDS011;26644;50.248;19.032;2022-09-04T07:19:36;11.80;;;8.80;;
40917;SDS011;26644;50.248;19.032;2022-09-04T07:26:23;12.90;;;9.38;;
40917;SDS011;26644;50.248;19.032;2022-09-04T07:29:33;10.55;;;7.47;;
40917;SDS011;26644;50.248;19.032;2022-09-04T07:32:39;12.95;;;8.73;;
40917;SDS011;26644;50.248;19.032;2022-09-04T07:35:47;11.75;;;8.50;;
40917;SDS011;26644;50.248;19.032;2022-09-04T07:38:57;12.05;;;8.07;;
40917;SDS011;26644;50.248;19.032;2022-09-04T07:42:08;14.13;;;8.57;;
40917;SDS011;26644;50.248;19.032;2022-09-04T07:45:18;10.55;;;7.35;;
40917;SDS011;26644;50.248;19.032;2022-09-04T07:48:28;12.40;;;7.43;;
40917;SDS011;26644;50.248;19.032;2022-09-04T07:51:36;10.13;;;6.53;;
40917;SDS011;26644;50.248;19.032;2022-09-04T07:54:59;8.50;;;6.50;;
40917;SDS011;26644;50.248;19.032;2022-09-04T07:58:18;9.68;;;6.93;;
40917;SDS011;26644;50.248;19.032;2022-09-04T08:01:40;10.37;;;7.23;;
40917;SDS011;26644;50.248;19.032;2022-09-04T08:12:08;8.45;;;6.32;;
40917;SDS011;26644;50.248;19.032;2022-09-04T08:15:24;8.68;;;6.28;;
40917;SDS011;26644;50.248;19.032;2022-09-04T08:18:37;9.57;;;6.47;;
40917;SDS011;26644;50.248;19.032;2022-09-04T08:21:55;8.50;;;6.43;;
40917;SDS011;26644;50.248;19.032;2022-09-04T08:25:03;7.63;;;5.65;;
40917;SDS011;26644;50.248;19.032;2022-09-04T08:28:22;6.45;;;5.20;;
40917;SDS011;26644;50.248;19.032;2022-09-04T08:31:46;5.93;;;4.40;;
40917;SDS011;26644;50.248;19.032;2022-09-04T08:35:07;6.97;;;4.68;;
40917;SDS011;26644;50.248;19.032;2022-09-04T08:38:22;6.03;;;4.70;;
40917;SDS011;26644;50.248;19.032;2022-09-04T08:45:43;9.38;;;4.72;;
40917;SDS011;26644;50.248;19.032;2022-09-04T08:49:25;7.10;;;4.70;;
40917;SDS011;26644;50.248;19.032;2022-09-04T08:53:14;6.33;;;4.80;;
40917;SDS011;26644;50.248;19.032;2022-09-04T08:56:39;8.07;;;5.18;;
40917;SDS011;26644;50.248;19.032;2022-09-04T08:59:56;7.15;;;5.00;;
40917;SDS011;26644;50.248;19.032;2022-09-04T09:03:33;6.95;;;4.57;;
40917;SDS011;26644;50.248;19.032;2022-09-04T09:07:01;7.35;;;4.65;;
40917;SDS011;26644;50.248;19.032;2022-09-04T09:10:33;6.32;;;4.70;;
40917;SDS011;26644;50.248;19.032;2022-09-04T09:13:46;7.40;;;5.10;;
40917;SDS011;26644;50.248;19.032;2022-09-04T09:17:05;8.93;;;4.53;;
40917;SDS011;26644;50.248;19.032;2022-09-04T09:20:20;7.78;;;4.95;;
40917;SDS011;26644;50.248;19.032;2022-09-04T09:23:33;6.32;;;4.63;;
40917;SDS011;26644;50.248;19.032;2022-09-04T09:26:42;8.05;;;5.00;;
40917;SDS011;26644;50.248;19.032;2022-09-04T09:30:01;8.45;;;5.45;;
40917;SDS011;26644;50.248;19.032;2022-09-04T09:33:19;8.90;;;5.15;;
40917;SDS011;26644;50.248;19.032;2022-09-04T09:36:51;6.43;;;4.95;;
40917;SDS011;26644;50.248;19.032;2022-09-04T09:55:01;7.38;;;5.20;;
40917;SDS011;26644;50.248;19.032;2022-09-04T10:02:13;7.95;;;5.90;;
40917;SDS011;26644;50.248;19.032;2022-09-04T10:09:23;7.75;;;5.55;;
40917;SDS011;26644;50.248;19.032;2022-09-04T10:12:48;7.78;;;5.53;;
40917;SDS011;26644;50.248;19.032;2022-09-04T10:19:57;7.05;;;4.97;;
40917;SDS011;26644;50.248;19.032;2022-09-04T10:23:31;7.60;;;5.30;;
40917;SDS011;26644;50.248;19.032;2022-09-04T10:27:02;11.70;;;6.22;;
40917;SDS011;26644;50.248;19.032;2022-09-04T10:30:48;7.57;;;5.60;;
40917;SDS011;26644;50.248;19.032;2022-09-04T10:34:16;6.68;;;5.32;;
40917;SDS011;26644;50.248;19.032;2022-09-04T10:37:32;9.45;;;5.70;;
40917;SDS011;26644;50.248;19.032;2022-09-04T10:40:47;6.93;;;5.85;;
40917;SDS011;26644;50.248;19.032;2022-09-04T10:44:17;10.60;;;5.68;;
40917;SDS011;26644;50.248;19.032;2022-09-04T10:47:44;8.55;;;6.07;;
40917;SDS011;26644;50.248;19.032;2022-09-04T10:51:10;8.20;;;6.10;;
40917;SDS011;26644;50.248;19.032;2022-09-04T10:54:47;11.45;;;6.85;;
40917;SDS011;26644;50.248;19.032;2022-09-04T10:58:05;9.30;;;6.25;;
40917;SDS011;26644;50.248;19.032;2022-09-04T11:08:35;8.95;;;6.28;;
40917;SDS011;26644;50.248;19.032;2022-09-04T11:12:00;11.40;;;6.57;;
40917;SDS011;26644;50.248;19.032;2022-09-04T11:15:45;13.10;;;8.23;;
40917;SDS011;26644;50.248;19.032;2022-09-04T11:19:06;12.30;;;8.55;;
40917;SDS011;26644;50.248;19.032;2022-09-04T11:22:54;10.00;;;7.78;;
40917;SDS011;26644;50.248;19.032;2022-09-04T11:30:02;20.27;;;9.70;;
40917;SDS011;26644;50.248;19.032;2022-09-04T11:33:18;14.97;;;10.80;;
40917;SDS011;26644;50.248;19.032;2022-09-04T11:36:48;15.30;;;10.43;;
40917;SDS011;26644;50.248;19.032;2022-09-04T11:43:55;16.40;;;10.77;;
40917;SDS011;26644;50.248;19.032;2022-09-04T11:47:31;16.65;;;10.50;;
40917;SDS011;26644;50.248;19.032;2022-09-04T11:51:07;19.27;;;11.18;;
40917;SDS011;26644;50.248;19.032;2022-09-04T11:54:32;15.00;;;10.32;;
40917;SDS011;26644;50.248;19.032;2022-09-04T11:57:59;17.70;;;11.07;;
40917;SDS011;26644;50.248;19.032;2022-09-04T12:01:17;15.95;;;10.93;;
40917;SDS011;26644;50.248;19.032;2022-09-04T12:04:33;17.75;;;11.05;;
40917;SDS011;26644;50.248;19.032;2022-09-04T12:07:51;21.92;;;12.98;;
40917;SDS011;26644;50.248;19.032;2022-09-04T12:11:16;15.88;;;11.00;;
40917;SDS011;26644;50.248;19.032;2022-09-04T12:14:53;17.50;;;11.45;;
40917;SDS011;26644;50.248;19.032;2022-09-04T12:18:15;18.70;;;10.48;;
40917;SDS011;26644;50.248;19.032;2022-09-04T12:25:30;16.40;;;10.18;;
40917;SDS011;26644;50.248;19.032;2022-09-04T12:36:26;17.85;;;11.32;;
40917;SDS011;26644;50.248;19.032;2022-09-04T12:39:55;16.85;;;11.13;;
40917;SDS011;26644;50.248;19.032;2022-09-04T12:43:20;16.27;;;10.25;;
40917;SDS011;26644;50.248;19.032;2022-09-04T12:46:38;16.23;;;10.00;;
40917;SDS011;26644;50.248;19.032;2022-09-04T12:50:02;18.70;;;11.57;;
40917;SDS011;26644;50.248;19.032;2022-09-04T12:53:20;16.60;;;10.45;;
40917;SDS011;26644;50.248;19.032;2022-09-04T12:56:34;17.52;;;12.18;;
40917;SDS011;26644;50.248;19.032;2022-09-04T12:59:46;21.77;;;13.20;;
40917;SDS011;26644;50.248;19.032;2022-09-04T13:03:01;19.58;;;13.13;;
40917;SDS011;26644;50.248;19.032;2022-09-04T13:06:14;20.65;;;13.20;;
40917;SDS011;26644;50.248;19.032;2022-09-04T13:09:29;18.17;;;12.13;;
40917;SDS011;26644;50.248;19.032;2022-09-04T13:12:40;18.55;;;11.75;;
40917;SDS011;26644;50.248;19.032;2022-09-04T13:15:53;16.55;;;10.23;;
40917;SDS011;26644;50.248;19.032;2022-09-04T13:19:02;14.73;;;10.38;;
40917;SDS011;26644;50.248;19.032;2022-09-04T13:22:16;13.13;;;9.23;;
40917;SDS011;26644;50.248;19.032;2022-09-04T13:25:30;11.63;;;8.80;;
40917;SDS011;26644;50.248;19.032;2022-09-04T13:28:44;13.77;;;8.30;;
40917;SDS011;26644;50.248;19.032;2022-09-04T13:35:33;9.13;;;6.82;;
40917;SDS011;26644;50.248;19.032;2022-09-04T13:39:01;10.88;;;7.47;;
40917;SDS011;26644;50.248;19.032;2022-09-04T13:42:34;10.32;;;7.53;;
40917;SDS011;26644;50.248;19.032;2022-09-04T13:46:04;8.20;;;6.30;;
40917;SDS011;26644;50.248;19.032;2022-09-04T13:49:11;7.38;;;5.38;;
40917;SDS011;26644;50.248;19.032;2022-09-04T13:52:18;10.15;;;5.85;;
40917;SDS011;26644;50.248;19.032;2022-09-04T13:55:28;8.63;;;5.80;;
40917;SDS011;26644;50.248;19.032;2022-09-04T13:58:36;7.18;;;5.55;;
40917;SDS011;26644;50.248;19.032;2022-09-04T14:01:41;8.60;;;5.85;;
40917;SDS011;26644;50.248;19.032;2022-09-04T14:04:50;8.15;;;5.28;;
40917;SDS011;26644;50.248;19.032;2022-09-04T14:07:56;8.35;;;6.45;;
40917;SDS011;26644;50.248;19.032;2022-09-04T14:11:17;6.53;;;5.35;;
40917;SDS011;26644;50.248;19.032;2022-09-04T14:18:18;7.82;;;5.60;;
40917;SDS011;26644;50.248;19.032;2022-09-04T14:21:34;7.55;;;5.65;;
40917;SDS011;26644;50.248;19.032;2022-09-04T14:24:48;8.75;;;6.03;;
40917;SDS011;26644;50.248;19.032;2022-09-04T14:27:58;10.45;;;5.75;;
40917;SDS011;26644;50.248;19.032;2022-09-04T14:31:05;7.30;;;5.68;;
40917;SDS011;26644;50.248;19.032;2022-09-04T14:34:18;9.70;;;6.68;;
40917;SDS011;26644;50.248;19.032;2022-09-04T14:37:37;9.40;;;5.88;;
40917;SDS011;26644;50.248;19.032;2022-09-04T14:40:55;7.47;;;5.60;;
40917;SDS011;26644;50.248;19.032;2022-09-04T14:44:11;9.88;;;7.35;;
40917;SDS011;26644;50.248;19.032;2022-09-04T14:47:26;8.13;;;6.38;;
40917;SDS011;26644;50.248;19.032;2022-09-04T14:50:42;8.85;;;6.70;;
40917;SDS011;26644;50.248;19.032;2022-09-04T14:53:48;8.05;;;5.95;;
40917;SDS011;26644;50.248;19.032;2022-09-04T14:56:55;8.98;;;6.43;;
40917;SDS011;26644;50.248;19.032;2022-09-04T15:00:04;11.18;;;7.10;;
40917;SDS011;26644;50.248;19.032;2022-09-04T15:03:16;7.68;;;5.75;;
40917;SDS011;26644;50.248;19.032;2022-09-04T15:06:23;10.00;;;6.28;;
40917;SDS011;26644;50.248;19.032;2022-09-04T15:09:31;8.68;;;5.88;;
40917;SDS011;26644;50.248;19.032;2022-09-04T15:12:38;8.98;;;6.55;;
40917;SDS011;26644;50.248;19.032;2022-09-04T15:15:44;10.10;;;6.80;;
40917;SDS011;26644;50.248;19.032;2022-09-04T15:18:52;8.50;;;6.40;;
40917;SDS011;26644;50.248;19.032;2022-09-04T15:22:03;9.13;;;6.75;;
40917;SDS011;26644;50.248;19.032;2022-09-04T15:25:26;8.57;;;5.70;;
40917;SDS011;26644;50.248;19.032;2022-09-04T15:28:36;9.02;;;5.82;;
40917;SDS011;26644;50.248;19.032;2022-09-04T15:31:41;10.23;;;7.40;;
40917;SDS011;26644;50.248;19.032;2022-09-04T15:34:45;11.30;;;6.45;;
40917;SDS011;26644;50.248;19.032;2022-09-04T15:37:47;10.20;;;7.15;;
40917;SDS011;26644;50.248;19.032;2022-09-04T15:40:55;11.23;;;7.05;;
40917;SDS011;26644;50.248;19.032;2022-09-04T15:44:07;9.27;;;6.72;;
40917;SDS011;26644;50.248;19.032;2022-09-04T15:47:15;13.45;;;7.38;;
40917;SDS011;26644;50.248;19.032;2022-09-04T15:50:24;11.18;;;7.15;;
40917;SDS011;26644;50.248;19.032;2022-09-04T15:53:31;11.43;;;6.63;;
40917;SDS011;26644;50.248;19.032;2022-09-04T15:56:35;10.00;;;6.72;;
40917;SDS011;26644;50.248;19.032;2022-09-04T15:59:43;9.45;;;6.22;;
40917;SDS011;26644;50.248;19.032;2022-09-04T16:02:50;7.60;;;6.28;;
40917;SDS011;26644;50.248;19.032;2022-09-04T16:06:00;9.25;;;6.22;;
40917;SDS011;26644;50.248;19.032;2022-09-04T16:09:06;9.65;;;6.18;;
40917;SDS011;26644;50.248;19.032;2022-09-04T16:15:26;8.27;;;5.95;;
40917;SDS011;26644;50.248;19.032;2022-09-04T16:18:37;8.33;;;6.63;;
40917;SDS011;26644;50.248;19.032;2022-09-04T16:21:51;6.78;;;5.93;;
40917;SDS011;26644;50.248;19.032;2022-09-04T16:25:03;9.38;;;7.00;;
40917;SDS011;26644;50.248;19.032;2022-09-04T16:28:08;7.85;;;5.88;;
40917;SDS011;26644;50.248;19.032;2022-09-04T16:31:12;7.68;;;5.93;;
40917;SDS011;26644;50.248;19.032;2022-09-04T16:34:23;7.32;;;5.95;;
40917;SDS011;26644;50.248;19.032;2022-09-04T16:37:31;9.55;;;6.68;;
40917;SDS011;26644;50.248;19.032;2022-09-04T16:40:40;8.25;;;6.22;;
40917;SDS011;26644;50.248;19.032;2022-09-04T16:44:04;7.38;;;6.05;;
40917;SDS011;26644;50.248;19.032;2022-09-04T16:47:14;8.63;;;6.18;;
40917;SDS011;26644;50.248;19.032;2022-09-04T16:50:24;9.38;;;6.03;;
40917;SDS011;26644;50.248;19.032;2022-09-04T16:53:34;12.63;;;6.43;;
40917;SDS011;26644;50.248;19.032;2022-09-04T16:56:40;10.13;;;6.97;;
40917;SDS011;26644;50.248;19.032;2022-09-04T16:59:49;9.88;;;7.18;;
40917;SDS011;26644;50.248;19.032;2022-09-04T17:02:57;7.85;;;6.63;;
40917;SDS011;26644;50.248;19.032;2022-09-04T17:06:07;10.07;;;6.35;;
40917;SDS011;26644;50.248;19.032;2022-09-04T17:09:23;10.52;;;6.72;;
40917;SDS011;26644;50.248;19.032;2022-09-04T17:12:39;10.57;;;7.03;;
40917;SDS011;26644;50.248;19.032;2022-09-04T17:15:50;9.50;;;7.05;;
40917;SDS011;26644;50.248;19.032;2022-09-04T17:18:57;9.80;;;7.47;;
40917;SDS011;26644;50.248;19.032;2022-09-04T17:22:10;11.63;;;7.88;;
40917;SDS011;26644;50.248;19.032;2022-09-04T17:25:37;14.52;;;7.78;;
40917;SDS011;26644;50.248;19.032;2022-09-04T17:28:50;10.93;;;8.18;;
40917;SDS011;26644;50.248;19.032;2022-09-04T17:31:59;9.63;;;7.78;;
40917;SDS011;26644;50.248;19.032;2022-09-04T17:35:08;11.82;;;7.95;;
40917;SDS011;26644;50.248;19.032;2022-09-04T17:38:20;15.35;;;8.52;;
40917;SDS011;26644;50.248;19.032;2022-09-04T17:41:38;11.65;;;8.68;;
40917;SDS011;26644;50.248;19.032;2022-09-04T17:44:44;12.48;;;9.10;;
40917;SDS011;26644;50.248;19.032;2022-09-04T17:47:58;12.63;;;9.73;;
40917;SDS011;26644;50.248;19.032;2022-09-04T17:51:02;14.95;;;10.95;;
40917;SDS011;26644;50.248;19.032;2022-09-04T17:54:08;14.93;;;10.45;;
40917;SDS011;26644;50.248;19.032;2022-09-04T17:57:20;12.88;;;9.50;;
40917;SDS011;26644;50.248;19.032;2022-09-04T18:00:28;18.42;;;11.68;;
40917;SDS011;26644;50.248;19.032;2022-09-04T18:03:37;19.45;;;10.88;;
40917;SDS011;26644;50.248;19.032;2022-09-04T18:06:50;17.23;;;10.93;;
40917;SDS011;26644;50.248;19.032;2022-09-04T18:09:59;19.15;;;12.38;;
40917;SDS011;26644;50.248;19.032;2022-09-04T18:13:11;13.80;;;9.73;;
40917;SDS011;26644;50.248;19.032;2022-09-04T18:16:31;15.38;;;10.93;;
40917;SDS011;26644;50.248;19.032;2022-09-04T18:19:55;13.68;;;9.75;;
40917;SDS011;26644;50.248;19.032;2022-09-04T18:23:13;16.25;;;10.07;;
40917;SDS011;26644;50.248;19.032;2022-09-04T18:26:21;13.43;;;10.10;;
40917;SDS011;26644;50.248;19.032;2022-09-04T18:29:38;14.30;;;10.43;;
40917;SDS011;26644;50.248;19.032;2022-09-04T18:32:49;14.70;;;10.40;;
40917;SDS011;26644;50.248;19.032;2022-09-04T18:35:56;13.50;;;10.10;;
40917;SDS011;26644;50.248;19.032;2022-09-04T18:39:03;13.35;;;10.45;;
40917;SDS011;26644;50.248;19.032;2022-09-04T18:42:13;22.10;;;11.70;;
40917;SDS011;26644;50.248;19.032;2022-09-04T18:45:24;17.00;;;11.55;;
40917;SDS011;26644;50.248;19.032;2022-09-04T18:48:31;14.52;;;10.45;;
40917;SDS011;26644;50.248;19.032;2022-09-04T18:51:37;14.75;;;10.20;;
40917;SDS011;26644;50.248;19.032;2022-09-04T18:54:44;13.60;;;9.82;;
40917;SDS011;26644;50.248;19.032;2022-09-04T18:57:50;16.50;;;10.75;;
40917;SDS011;26644;50.248;19.032;2022-09-04T19:00:58;14.63;;;10.20;;
40917;SDS011;26644;50.248;19.032;2022-09-04T19:04:25;14.05;;;11.00;;
40917;SDS011;26644;50.248;19.032;2022-09-04T19:07:43;14.07;;;9.85;;
40917;SDS011;26644;50.248;19.032;2022-09-04T19:10:48;15.57;;;10.77;;
40917;SDS011;26644;50.248;19.032;2022-09-04T19:13:54;17.35;;;11.30;;
40917;SDS011;26644;50.248;19.032;2022-09-04T19:17:07;15.05;;;10.13;;
40917;SDS011;26644;50.248;19.032;2022-09-04T19:20:15;17.42;;;11.13;;
40917;SDS011;26644;50.248;19.032;2022-09-04T19:23:22;17.23;;;11.25;;
40917;SDS011;26644;50.248;19.032;2022-09-04T19:26:32;16.17;;;11.90;;
40917;SDS011;26644;50.248;19.032;2022-09-04T19:29:40;18.15;;;11.88;;
40917;SDS011;26644;50.248;19.032;2022-09-04T19:32:57;24.50;;;15.18;;
40917;SDS011;26644;50.248;19.032;2022-09-04T19:36:06;18.73;;;13.02;;
40917;SDS011;26644;50.248;19.032;2022-09-04T19:39:21;18.85;;;13.32;;
40917;SDS011;26644;50.248;19.032;2022-09-04T19:42:33;19.70;;;12.88;;
40917;SDS011;26644;50.248;19.032;2022-09-04T19:45:46;21.13;;;14.13;;
40917;SDS011;26644;50.248;19.032;2022-09-04T19:49:00;19.65;;;12.70;;
40917;SDS011;26644;50.248;19.032;2022-09-04T19:52:12;19.48;;;13.68;;
40917;SDS011;26644;50.248;19.032;2022-09-04T19:55:19;18.70;;;12.82;;
40917;SDS011;26644;50.248;19.032;2022-09-04T19:58:36;22.52;;;13.75;;
40917;SDS011;26644;50.248;19.032;2022-09-04T20:01:41;19.85;;;13.60;;
40917;SDS011;26644;50.248;19.032;2022-09-04T20:04:48;23.70;;;14.63;;
40917;SDS011;26644;50.248;19.032;2022-09-04T20:07:55;21.02;;;13.00;;
40917;SDS011;26644;50.248;19.032;2022-09-04T20:11:05;23.13;;;14.27;;
40917;SDS011;26644;50.248;19.032;2022-09-04T20:14:13;23.90;;;14.40;;
40917;SDS011;26644;50.248;19.032;2022-09-04T20:17:28;18.98;;;13.50;;
40917;SDS011;26644;50.248;19.032;2022-09-04T20:20:45;17.60;;;12.77;;
40917;SDS011;26644;50.248;19.032;2022-09-04T20:23:55;19.58;;;13.30;;
40917;SDS011;26644;50.248;19.032;2022-09-04T20:27:04;17.33;;;12.95;;
40917;SDS011;26644;50.248;19.032;2022-09-04T20:30:15;19.70;;;12.45;;
40917;SDS011;26644;50.248;19.032;2022-09-04T20:33:21;19.83;;;13.85;;
40917;SDS011;26644;50.248;19.032;2022-09-04T20:36:29;17.90;;;13.20;;
40917;SDS011;26644;50.248;19.032;2022-09-04T20:42:44;19.50;;;13.63;;
40917;SDS011;26644;50.248;19.032;2022-09-04T20:45:50;18.65;;;12.40;;
40917;SDS011;26644;50.248;19.032;2022-09-04T20:49:08;19.35;;;13.75;;
40917;SDS011;26644;50.248;19.032;2022-09-04T20:52:25;22.17;;;14.63;;